Del Rio, TX

3:19 AM CDT on September 04, 2015 (GMT -0500)
Avenue P, Del Rio, TX | | Change Station
CLOSE
Current Station
Personal Weather Station
Location: Del Rio, TX
Elevation: 1014 ft
Nearby Weather Stations

Elev 1014 ft 29.38 °N, 100.91 °W | Updated 7 minutes ago

Clear
Clear
78.4 °F
Feels Like 81 °F
N
2.7
Wind Variable Wind from South

Today
High -- | Low -- °F
--% Chance of Precip.
Yesterday
High -- | Low -- °F
Precip. -- in
7:22 AM 8:02 PM
Waning Gibbous, 62% visible
Pressure 29.81 in
Visibility 10.0 miles
Clouds Clear
Heat Index 81 °F
Dew Point 68 °F
Humidity 70%
Rainfall 0.00 in
Snow Depth Not available.
UV 0 out of 12
Pollen 9.50 out of 12
Air Quality Not available.
Flu Activity Not available.
METAR KDRT 040753Z AUTO 10007KT 10SM CLR 27/19 A2987 RMK AO2 SLP095 T02670194 $
Pressure 29.81 in
Visibility 10.0 miles
Clouds Clear
Heat Index 81 °F
Dew Point 68 °F
Humidity 70%
Rainfall 0.00 in
Snow Depth Not available.
UV 0 out of 12
Pollen 9.50 out of 12
Air Quality Not available.
Flu Activity Not available.
METAR KDRT 040753Z AUTO 10007KT 10SM CLR 27/19 A2987 RMK AO2 SLP095 T02670194 $

10-Day Weather Forecast

×

Almanac

Astronomy

Sep. 04, 2015 Rise Set
Actual Time
Civil Twilight
Nautical Twilight
Astronomical Twilight
Moon
Length of Visible Light
Length of Day
Tomorrow will be .
, % of the Moon is Illuminated

Today's Extremes

State Highs State Lows

Community

WunderPhotos

Upload Photos

1,852,141 photos uploaded!

WunderBlogs® & News

Nearby

Air Quality

  Air Quality AQ Index Pollutant
Not available.

Snow Depth

Station Depth Elevation

Earthquake Activity

City Distance Mag. Time & Date
Minimum magnitude displayed is 2.5.

Coastal Water Temperatures

Place Temperature

Stations

Nearby Weather Stations

Station Location Temp. Windchill Dew Point Humidity Wind Precip. Elev Updated Type